createdAt,value
2018-05-29T00:01:42.202Z,15.20
2018-05-29T00:04:10.565Z,15.10
2018-05-29T00:06:39.557Z,15.10
2018-05-29T00:09:07.804Z,15.00
2018-05-29T00:11:35.313Z,15.00
2018-05-29T00:14:03.554Z,15.00
2018-05-29T00:16:31.048Z,15.00
2018-05-29T00:18:59.280Z,15.00
2018-05-29T00:21:26.814Z,15.00
2018-05-29T00:23:54.286Z,15.00
2018-05-29T00:26:21.773Z,14.90
2018-05-29T00:28:50.057Z,14.80
2018-05-29T00:31:17.514Z,14.80
2018-05-29T00:33:46.524Z,14.60
2018-05-29T00:36:14.815Z,14.50
2018-05-29T00:38:43.054Z,14.60
2018-05-29T00:41:10.553Z,14.60
2018-05-29T00:43:38.833Z,14.70
2018-05-29T00:46:06.293Z,14.70
2018-05-29T00:48:33.789Z,14.70
2018-05-29T00:51:01.253Z,14.60
2018-05-29T00:53:28.753Z,14.60
2018-05-29T00:55:56.987Z,14.40
2018-05-29T00:58:24.501Z,14.40
2018-05-29T01:00:52.018Z,14.30
2018-05-29T01:03:19.485Z,14.20
2018-05-29T01:05:48.487Z,14.10
2018-05-29T01:08:15.953Z,14.00
2018-05-29T01:10:44.228Z,14.10
2018-05-29T01:13:11.708Z,14.10
2018-05-29T01:15:39.210Z,14.20
2018-05-29T01:18:06.694Z,14.20
2018-05-29T01:20:34.975Z,14.10
2018-05-29T01:23:02.450Z,14.10
2018-05-29T01:25:30.717Z,14.00
2018-05-29T01:27:58.991Z,14.00
2018-05-29T01:30:27.243Z,13.80
2018-05-29T01:32:54.746Z,13.80
2018-05-29T01:35:22.997Z,13.80
2018-05-29T01:37:52.005Z,13.70
2018-05-29T01:40:20.268Z,13.60
2018-05-29T01:42:48.523Z,13.60
2018-05-29T01:45:16.024Z,13.60
2018-05-29T01:47:44.296Z,13.60
2018-05-29T01:50:13.294Z,13.60
2018-05-29T01:52:41.549Z,13.50
2018-05-29T01:55:09.048Z,13.50
2018-05-29T01:57:36.541Z,13.40
2018-05-29T02:00:04.048Z,13.50
2018-05-29T02:02:31.550Z,13.40
2018-05-29T02:04:59.127Z,13.40
2018-05-29T02:07:26.605Z,13.40
2018-05-29T02:09:54.841Z,13.30
2018-05-29T02:12:22.356Z,13.30
2018-05-29T02:14:50.589Z,13.20
2018-05-29T02:17:18.105Z,13.20
2018-05-29T02:19:45.581Z,13.30
2018-05-29T02:22:13.070Z,13.20
2018-05-29T02:24:40.577Z,13.20
2018-05-29T02:27:08.825Z,13.10
2018-05-29T02:29:37.067Z,13.20
2018-05-29T02:32:04.561Z,13.10
2018-05-29T02:34:32.051Z,13.20
2018-05-29T02:36:59.546Z,13.10
2018-05-29T02:39:27.072Z,13.10
2018-05-29T02:41:54.558Z,13.00
2018-05-29T02:44:22.070Z,13.00
2018-05-29T02:46:50.308Z,13.00
2018-05-29T02:49:17.824Z,12.90
2018-05-29T02:51:45.315Z,12.90
2018-05-29T02:54:12.846Z,12.80
2018-05-29T02:56:40.327Z,12.80
2018-05-29T02:59:07.820Z,12.80
2018-05-29T03:01:35.333Z,12.80
2018-05-29T03:04:02.853Z,12.70
2018-05-29T03:06:31.093Z,12.70
2018-05-29T03:08:58.585Z,12.70
2018-05-29T03:11:26.876Z,12.60
2018-05-29T03:13:55.105Z,12.70
2018-05-29T03:16:22.690Z,12.70
2018-05-29T03:18:51.673Z,12.60
2018-05-29T03:21:19.166Z,12.60
2018-05-29T03:23:46.646Z,12.50
2018-05-29T03:26:14.137Z,12.50
2018-05-29T03:28:41.645Z,12.60
2018-05-29T03:31:09.157Z,12.60
2018-05-29T03:33:36.613Z,12.60
2018-05-29T03:36:04.095Z,12.60
2018-05-29T03:38:31.605Z,12.70
2018-05-29T03:40:59.073Z,12.70
2018-05-29T03:43:26.583Z,12.60
2018-05-29T03:45:54.846Z,12.70
2018-05-29T03:48:22.334Z,12.70
2018-05-29T03:50:49.822Z,12.80
2018-05-29T03:53:17.345Z,12.80
2018-05-29T03:55:45.610Z,12.80
2018-05-29T03:58:13.886Z,12.80
2018-05-29T04:00:42.157Z,12.80
2018-05-29T04:03:10.420Z,12.90
2018-05-29T04:05:37.943Z,12.90
2018-05-29T04:08:05.431Z,13.00
2018-05-29T04:10:33.800Z,13.00
2018-05-29T04:13:01.289Z,13.10
2018-05-29T04:15:29.568Z,13.20
2018-05-29T04:17:57.805Z,13.20
2018-05-29T04:20:25.312Z,13.10
2018-05-29T04:22:53.550Z,13.30
2018-05-29T04:25:21.060Z,13.30
2018-05-29T04:27:48.530Z,13.30
2018-05-29T04:30:16.087Z,13.30
2018-05-29T04:32:43.605Z,13.40
2018-05-29T04:35:11.099Z,13.50
2018-05-29T04:37:39.361Z,13.60
2018-05-29T04:40:07.605Z,13.60
2018-05-29T04:42:35.108Z,13.60
2018-05-29T04:45:02.583Z,13.60
2018-05-29T04:47:30.108Z,13.70
2018-05-29T04:49:58.350Z,13.80
2018-05-29T04:52:25.875Z,13.80
2018-05-29T04:54:53.354Z,13.90
2018-05-29T04:57:20.845Z,13.90
2018-05-29T04:59:48.331Z,14.00
2018-05-29T05:02:16.561Z,14.10
2018-05-29T05:04:44.100Z,14.10
2018-05-29T05:07:11.573Z,14.10
2018-05-29T05:09:39.058Z,14.20
2018-05-29T05:12:06.538Z,14.30
2018-05-29T05:14:34.793Z,14.40
2018-05-29T05:17:02.281Z,14.40
2018-05-29T05:19:30.556Z,14.50
2018-05-29T05:21:58.776Z,14.60
2018-05-29T05:24:26.295Z,14.60
2018-05-29T05:26:54.529Z,14.90
2018-05-29T05:29:22.017Z,14.80
2018-05-29T05:31:50.254Z,15.10
2018-05-29T05:34:17.745Z,15.10
2018-05-29T05:36:45.970Z,15.30
2018-05-29T05:39:13.470Z,15.30
2018-05-29T05:41:40.988Z,15.40
2018-05-29T05:44:08.482Z,15.50
2018-05-29T05:46:35.973Z,15.70
2018-05-29T05:49:04.219Z,15.80
2018-05-29T05:51:31.722Z,15.80
2018-05-29T05:53:59.173Z,16.00
2018-05-29T05:56:26.678Z,16.10
2018-05-29T05:58:54.146Z,16.30
2018-05-29T06:01:22.438Z,16.60
2018-05-29T06:03:51.455Z,16.80
2018-05-29T06:06:19.729Z,17.00
2018-05-29T06:08:47.973Z,17.10
2018-05-29T06:11:15.465Z,17.10
2018-05-29T06:13:43.737Z,17.40
2018-05-29T06:16:12.007Z,17.50
2018-05-29T06:18:40.297Z,17.60
2018-05-29T06:21:08.541Z,17.80
2018-05-29T06:23:36.026Z,17.80
2018-05-29T06:26:04.285Z,18.20
2018-05-29T06:28:31.758Z,18.20
2018-05-29T06:31:00.044Z,18.70
2018-05-29T06:33:28.327Z,19.10
2018-05-29T06:35:56.586Z,19.20
2018-05-29T06:38:24.876Z,19.40
2018-05-29T06:40:53.097Z,19.40
2018-05-29T06:43:20.591Z,19.40
2018-05-29T06:45:48.057Z,19.70
2018-05-29T06:48:16.341Z,20.10
2018-05-29T06:50:44.598Z,20.20
2018-05-29T06:53:12.077Z,20.20
2018-05-29T06:55:40.337Z,20.60
2018-05-29T06:58:07.851Z,20.60
2018-05-29T07:00:35.316Z,20.70
2018-05-29T07:03:02.819Z,20.90
2018-05-29T07:05:31.068Z,21.50
2018-05-29T07:07:58.564Z,21.50
2018-05-29T07:10:26.820Z,21.90
2018-05-29T07:12:54.336Z,21.90
2018-05-29T07:15:21.837Z,22.20
2018-05-29T07:17:49.330Z,22.40
2018-05-29T07:20:16.799Z,22.40
2018-05-29T07:22:44.307Z,22.50
2018-05-29T07:25:11.785Z,22.70
2018-05-29T07:27:40.055Z,23.10
2018-05-29T07:30:07.526Z,23.10
2018-05-29T07:32:35.830Z,23.60
2018-05-29T07:35:03.293Z,23.60
2018-05-29T07:37:30.766Z,23.60
2018-05-29T07:39:58.286Z,23.60
2018-05-29T07:42:26.513Z,23.10
2018-05-29T07:44:54.007Z,23.10
2018-05-29T07:47:21.477Z,23.00
2018-05-29T07:49:49.742Z,22.90
2018-05-29T07:52:17.215Z,22.90
2018-05-29T07:54:45.478Z,23.40
2018-05-29T07:57:13.709Z,23.30
2018-05-29T07:59:41.217Z,23.30
2018-05-29T08:02:09.466Z,23.40
2018-05-29T08:04:36.956Z,23.40
2018-05-29T08:07:05.245Z,23.60
2018-05-29T08:09:32.744Z,23.60
2018-05-29T08:12:00.213Z,23.40
2018-05-29T08:14:27.721Z,23.30
2018-05-29T08:16:55.219Z,23.00
2018-05-29T08:19:22.733Z,23.00
2018-05-29T08:21:50.237Z,23.40
2018-05-29T08:24:17.740Z,23.40
2018-05-29T08:26:45.997Z,23.80
2018-05-29T08:29:14.257Z,24.00
2018-05-29T08:31:41.774Z,24.00
2018-05-29T08:34:09.245Z,24.30
2018-05-29T08:36:36.732Z,24.60
2018-05-29T08:39:04.227Z,24.80
2018-05-29T08:41:32.449Z,25.90
2018-05-29T08:43:59.938Z,25.90
2018-05-29T08:46:27.447Z,25.80
2018-05-29T08:48:55.673Z,26.10
2018-05-29T08:51:23.157Z,26.10
2018-05-29T08:53:51.424Z,26.50
2018-05-29T08:56:19.673Z,26.80
2018-05-29T08:58:47.184Z,26.90
2018-05-29T09:01:14.694Z,26.90
2018-05-29T09:03:42.177Z,26.70
2018-05-29T09:06:10.432Z,26.70
2018-05-29T09:08:37.938Z,26.70
2018-05-29T09:11:05.434Z,26.80
2018-05-29T09:13:32.914Z,26.80
2018-05-29T09:16:00.440Z,27.20
2018-05-29T09:18:27.954Z,27.60
2018-05-29T09:20:56.227Z,27.80
2018-05-29T09:23:24.499Z,27.60
2018-05-29T09:25:51.993Z,27.60
2018-05-29T09:28:19.489Z,27.70
2018-05-29T09:30:46.991Z,27.90
2018-05-29T09:33:15.238Z,27.70
2018-05-29T09:35:43.506Z,28.40
2018-05-29T09:38:10.965Z,28.40
2018-05-29T09:40:38.454Z,28.70
2018-05-29T09:43:06.707Z,28.10
2018-05-29T09:45:34.197Z,28.10
2018-05-29T09:48:02.429Z,28.00
2018-05-29T09:50:29.901Z,28.00
2018-05-29T09:52:59.201Z,27.70
2018-05-29T09:55:26.704Z,27.70
2018-05-29T09:57:54.217Z,27.30
2018-05-29T10:00:28.041Z,27.20
2018-05-29T10:02:55.561Z,27.20
2018-05-29T10:05:23.030Z,27.20
2018-05-29T10:07:50.519Z,27.40
2018-05-29T10:10:18.010Z,27.30
2018-05-29T10:12:45.486Z,27.20
2018-05-29T10:15:12.994Z,26.90
2018-05-29T10:17:41.230Z,27.10
2018-05-29T10:20:08.717Z,27.10
2018-05-29T10:22:36.977Z,27.10
2018-05-29T10:25:04.473Z,27.10
2018-05-29T10:27:32.717Z,27.00
2018-05-29T10:30:00.222Z,27.00
2018-05-29T10:32:27.678Z,26.70
2018-05-29T10:34:55.188Z,26.80
2018-05-29T10:37:22.683Z,27.00
2018-05-29T10:39:50.967Z,27.00
2018-05-29T10:42:19.207Z,27.00
2018-05-29T10:44:46.681Z,27.00
2018-05-29T10:47:14.948Z,26.60
2018-05-29T10:49:42.475Z,26.70
2018-05-29T10:52:09.937Z,26.60
2018-05-29T10:54:37.501Z,26.50
2018-05-29T10:57:05.018Z,26.60
2018-05-29T10:59:33.269Z,26.20
2018-05-29T11:02:02.277Z,26.20
2018-05-29T11:04:30.512Z,26.00
2018-05-29T11:06:58.061Z,26.00
2018-05-29T11:09:26.270Z,25.90
2018-05-29T11:11:53.765Z,25.90
2018-05-29T11:14:21.330Z,25.80
2018-05-29T11:16:48.749Z,25.90
2018-05-29T11:19:16.226Z,26.00
2018-05-29T11:21:44.487Z,25.90
2018-05-29T11:24:11.977Z,25.90
2018-05-29T11:26:39.469Z,25.80
2018-05-29T11:29:06.954Z,25.80
2018-05-29T11:31:34.451Z,25.50
2018-05-29T11:34:01.955Z,25.50
2018-05-29T11:36:29.454Z,25.40
2018-05-29T11:38:57.688Z,25.40
2018-05-29T11:41:25.165Z,25.40
2018-05-29T11:43:52.690Z,25.20
2018-05-29T11:46:20.209Z,25.10
2018-05-29T11:48:48.481Z,24.90
2018-05-29T11:51:16.768Z,24.90
2018-05-29T11:53:45.026Z,24.90
2018-05-29T11:56:12.546Z,24.90
2018-05-29T11:58:40.037Z,24.80
2018-05-29T12:01:07.521Z,24.70
2018-05-29T12:03:35.826Z,24.60
2018-05-29T12:06:03.289Z,24.60
2018-05-29T12:08:30.775Z,24.50
2018-05-29T12:10:58.287Z,24.50
2018-05-29T12:13:25.747Z,24.50
2018-05-29T12:15:53.257Z,24.40
2018-05-29T12:18:20.765Z,24.30
2018-05-29T12:20:48.304Z,24.30
2018-05-29T12:23:16.533Z,24.30
2018-05-29T12:25:44.026Z,24.30
2018-05-29T12:28:11.562Z,24.30
2018-05-29T12:30:39.042Z,24.30
2018-05-29T12:33:06.538Z,24.40
2018-05-29T12:35:34.103Z,24.30
2018-05-29T12:38:01.605Z,24.20
2018-05-29T12:40:29.109Z,24.30
2018-05-29T12:42:56.593Z,24.30
2018-05-29T12:45:24.081Z,24.40
2018-05-29T12:47:51.626Z,24.30
2018-05-29T12:50:19.114Z,24.40
2018-05-29T12:52:46.629Z,24.70
2018-05-29T12:55:14.104Z,24.70
2018-05-29T12:57:41.608Z,24.80
2018-05-29T13:00:09.876Z,24.90
2018-05-29T13:02:38.137Z,24.80
2018-05-29T13:05:05.618Z,24.80
2018-05-29T13:07:33.889Z,24.90
2018-05-29T13:10:02.133Z,24.80
2018-05-29T13:12:29.609Z,24.80
2018-05-29T13:14:57.158Z,24.90
2018-05-29T13:17:24.614Z,25.00
2018-05-29T13:19:52.118Z,24.90
2018-05-29T13:22:19.597Z,25.00
2018-05-29T13:24:47.093Z,24.90
2018-05-29T13:27:14.570Z,24.90
2018-05-29T13:29:42.842Z,25.00
2018-05-29T13:32:11.082Z,24.90
2018-05-29T13:34:38.657Z,24.90
2018-05-29T13:37:06.142Z,25.00
2018-05-29T13:39:34.411Z,24.80
2018-05-29T13:42:01.882Z,24.80
2018-05-29T13:44:30.125Z,24.80
2018-05-29T13:46:57.645Z,24.80
2018-05-29T13:49:25.126Z,24.80
2018-05-29T13:51:52.625Z,24.90
2018-05-29T13:54:20.877Z,24.80
2018-05-29T13:56:48.370Z,24.80
2018-05-29T13:59:16.597Z,25.30
2018-05-29T14:01:44.112Z,25.30
2018-05-29T14:04:12.352Z,25.60
2018-05-29T14:06:39.866Z,25.60
2018-05-29T14:09:07.340Z,25.70
2018-05-29T14:11:34.845Z,25.90
2018-05-29T14:14:03.827Z,26.60
2018-05-29T14:16:31.309Z,26.60
2018-05-29T14:18:59.574Z,26.20
2018-05-29T14:21:27.861Z,26.00
2018-05-29T14:23:55.379Z,25.90
2018-05-29T14:26:23.680Z,25.80
2018-05-29T14:28:51.204Z,25.70
2018-05-29T14:31:18.679Z,25.80
2018-05-29T14:33:46.149Z,25.60
2018-05-29T14:36:13.642Z,25.40
2018-05-29T14:38:41.920Z,25.00
2018-05-29T14:41:10.185Z,24.80
2018-05-29T14:43:38.429Z,24.70
2018-05-29T14:46:05.975Z,24.70
2018-05-29T14:48:33.456Z,24.70
2018-05-29T14:51:00.962Z,24.60
2018-05-29T14:53:28.474Z,24.90
2018-05-29T14:55:55.994Z,24.90
2018-05-29T14:58:23.492Z,24.70
2018-05-29T15:00:50.986Z,24.60
2018-05-29T15:03:19.225Z,24.20
2018-05-29T15:05:46.755Z,24.20
2018-05-29T15:08:14.257Z,23.80
2018-05-29T15:10:41.762Z,23.50
2018-05-29T15:13:09.255Z,23.40
2018-05-29T15:15:36.770Z,23.40
2018-05-29T15:18:04.286Z,23.30
2018-05-29T15:20:32.550Z,23.10
2018-05-29T15:23:02.048Z,23.10
2018-05-29T15:25:29.547Z,23.10
2018-05-29T15:27:57.830Z,22.70
2018-05-29T15:30:26.074Z,22.70
2018-05-29T15:32:53.595Z,22.60
2018-05-29T15:35:21.073Z,22.60
2018-05-29T15:37:48.600Z,22.50
2018-05-29T15:40:16.097Z,22.50
2018-05-29T15:42:43.617Z,22.40
2018-05-29T15:45:11.113Z,22.40
2018-05-29T15:47:38.618Z,22.40
2018-05-29T15:50:06.880Z,22.30
2018-05-29T15:52:34.395Z,22.30
2018-05-29T15:55:01.889Z,22.30
2018-05-29T15:57:29.385Z,22.20
2018-05-29T15:59:57.647Z,22.00
2018-05-29T16:02:25.894Z,22.00
2018-05-29T16:04:53.385Z,22.00
2018-05-29T16:07:21.706Z,22.10
2018-05-29T16:09:49.241Z,22.10
2018-05-29T16:12:16.729Z,22.10
2018-05-29T16:14:44.245Z,22.20
2018-05-29T16:17:12.508Z,22.40
2018-05-29T16:19:41.513Z,22.50
2018-05-29T16:22:09.767Z,22.50
2018-05-29T16:24:37.309Z,22.50
2018-05-29T16:27:04.801Z,22.50
2018-05-29T16:29:33.087Z,22.70
2018-05-29T16:32:01.370Z,22.80
2018-05-29T16:34:29.643Z,22.70
2018-05-29T16:36:57.937Z,22.50
2018-05-29T16:39:25.486Z,22.50
2018-05-29T16:41:52.974Z,22.40
2018-05-29T16:44:20.510Z,22.30
2018-05-29T16:46:48.021Z,22.30
2018-05-29T16:49:15.546Z,22.30
2018-05-29T16:51:43.058Z,22.10
2018-05-29T16:54:10.569Z,22.10
2018-05-29T16:56:38.060Z,22.00
2018-05-29T16:59:05.552Z,22.00
2018-05-29T17:01:33.814Z,22.00
2018-05-29T17:04:01.285Z,22.00
2018-05-29T17:06:29.549Z,21.80
2018-05-29T17:08:57.813Z,21.80
2018-05-29T17:11:25.332Z,21.80
2018-05-29T17:13:52.810Z,21.70
2018-05-29T17:16:20.285Z,21.60
2018-05-29T17:18:47.817Z,21.60
2018-05-29T17:21:15.295Z,21.60
2018-05-29T17:23:42.787Z,21.60
2018-05-29T17:26:11.033Z,21.60
2018-05-29T17:28:38.537Z,21.60
2018-05-29T17:31:06.022Z,21.60
2018-05-29T17:33:33.556Z,21.50
2018-05-29T17:36:01.037Z,21.60
2018-05-29T17:38:28.558Z,21.60
2018-05-29T17:40:56.825Z,21.50
2018-05-29T17:43:24.346Z,21.50
2018-05-29T17:45:51.829Z,21.60
2018-05-29T17:48:19.647Z,21.60
2018-05-29T17:50:47.413Z,21.60
2018-05-29T17:53:15.281Z,21.60
2018-05-29T17:55:43.152Z,21.50
2018-05-29T17:58:10.915Z,21.40
2018-05-29T18:00:38.526Z,21.40
2018-05-29T18:03:07.096Z,21.20
2018-05-29T18:05:35.612Z,21.10
2018-05-29T18:08:03.272Z,21.10
2018-05-29T18:10:31.274Z,21.00
2018-05-29T18:12:58.963Z,21.00
2018-05-29T18:15:26.814Z,21.00
2018-05-29T18:17:54.487Z,20.90
2018-05-29T18:20:22.342Z,20.90
2018-05-29T18:22:50.201Z,20.90
2018-05-29T18:25:17.835Z,20.80
2018-05-29T18:27:45.503Z,20.70
2018-05-29T18:30:13.139Z,20.50
2018-05-29T18:32:40.686Z,20.50
2018-05-29T18:35:08.262Z,20.40
2018-05-29T18:37:36.552Z,20.40
2018-05-29T18:40:04.858Z,20.20
2018-05-29T18:42:32.358Z,20.20
2018-05-29T18:44:59.874Z,20.10
2018-05-29T18:47:27.460Z,20.00
2018-05-29T18:49:54.936Z,19.90
2018-05-29T18:52:22.420Z,19.80
2018-05-29T18:54:50.718Z,19.60
2018-05-29T18:57:18.214Z,19.60
2018-05-29T18:59:45.698Z,19.60
2018-05-29T19:02:13.211Z,19.60
2018-05-29T19:04:40.745Z,19.50
2018-05-29T19:07:08.989Z,19.40
2018-05-29T19:09:36.490Z,19.40
2018-05-29T19:12:04.021Z,19.30
2018-05-29T19:14:31.502Z,19.20
2018-05-29T19:16:59.095Z,19.10
2018-05-29T19:19:26.523Z,19.00
2018-05-29T19:21:54.815Z,19.00
2018-05-29T19:24:22.305Z,19.00
2018-05-29T19:26:49.801Z,18.90
2018-05-29T19:29:18.055Z,18.70
2018-05-29T19:31:45.566Z,18.70
2018-05-29T19:34:13.053Z,18.60
2018-05-29T19:36:40.534Z,18.60
2018-05-29T19:39:08.036Z,18.50
2018-05-29T19:41:35.510Z,18.40
2018-05-29T19:44:02.993Z,18.40
2018-05-29T19:46:30.496Z,18.30
2018-05-29T19:48:58.772Z,18.10
2018-05-29T19:51:27.018Z,18.00
2018-05-29T19:53:54.533Z,18.00
2018-05-29T19:56:21.998Z,17.90
2018-05-29T19:58:49.516Z,17.80
2018-05-29T20:01:17.065Z,17.70
2018-05-29T20:03:44.543Z,17.60
2018-05-29T20:06:12.791Z,17.40
2018-05-29T20:08:40.300Z,17.30
2018-05-29T20:11:07.802Z,17.30
2018-05-29T20:13:35.276Z,17.30
2018-05-29T20:16:02.817Z,17.30
2018-05-29T20:18:30.324Z,17.30
2018-05-29T20:20:58.608Z,17.30
2018-05-29T20:23:26.086Z,17.20
2018-05-29T20:25:53.595Z,17.20
2018-05-29T20:28:21.078Z,17.20
2018-05-29T20:30:49.364Z,17.00
2018-05-29T20:33:16.842Z,17.00
2018-05-29T20:35:44.360Z,17.00
2018-05-29T20:38:12.609Z,16.90
2018-05-29T20:40:40.125Z,16.90
2018-05-29T20:43:07.601Z,16.90
2018-05-29T20:45:35.097Z,16.90
2018-05-29T20:48:02.910Z,16.80
2018-05-29T20:50:30.394Z,16.70
2018-05-29T20:52:57.887Z,16.60
2018-05-29T20:55:26.159Z,16.40
2018-05-29T20:57:55.154Z,16.50
2018-05-29T21:00:22.684Z,16.50
2018-05-29T21:02:50.146Z,16.50
2018-05-29T21:05:17.637Z,16.40
2018-05-29T21:07:45.901Z,16.40
2018-05-29T21:10:13.393Z,16.30
2018-05-29T21:12:40.873Z,16.30
2018-05-29T21:15:08.401Z,16.20
2018-05-29T21:17:36.651Z,16.00
2018-05-29T21:20:05.647Z,15.90
2018-05-29T21:22:33.166Z,15.90
2018-05-29T21:25:00.657Z,15.90
2018-05-29T21:27:28.162Z,16.00
2018-05-29T21:29:55.658Z,16.00
2018-05-29T21:32:23.165Z,16.00
2018-05-29T21:34:51.421Z,16.00
2018-05-29T21:37:18.940Z,16.00
2018-05-29T21:39:46.430Z,16.00
2018-05-29T21:42:13.926Z,16.00
2018-05-29T21:44:41.418Z,15.90
2018-05-29T21:47:08.923Z,15.90
2018-05-29T21:49:36.404Z,15.80
2018-05-29T21:52:04.656Z,15.80
2018-05-29T21:54:32.130Z,15.70
2018-05-29T21:56:59.642Z,15.70
2018-05-29T21:59:27.172Z,15.70
2018-05-29T22:01:54.662Z,15.60
2018-05-29T22:04:22.177Z,15.60
2018-05-29T22:06:49.653Z,15.60
2018-05-29T22:09:17.168Z,15.60
2018-05-29T22:11:44.638Z,15.60
2018-05-29T22:14:12.910Z,15.50
2018-05-29T22:16:41.162Z,15.50
2018-05-29T22:19:10.167Z,15.40
2018-05-29T22:21:37.657Z,15.40
2018-05-29T22:24:05.147Z,15.30
2018-05-29T22:26:32.636Z,15.30
2018-05-29T22:29:00.917Z,15.20
2018-05-29T22:31:29.916Z,15.10
2018-05-29T22:33:57.397Z,15.10
2018-05-29T22:36:25.675Z,15.20
2018-05-29T22:38:53.897Z,15.20
2018-05-29T22:41:21.410Z,15.10
2018-05-29T22:43:48.898Z,15.10
2018-05-29T22:46:16.836Z,15.10
2018-05-29T22:48:45.068Z,14.90
2018-05-29T22:51:12.593Z,14.90
2018-05-29T22:53:40.068Z,14.90
2018-05-29T22:56:07.541Z,14.80
2018-05-29T22:58:35.054Z,14.80
2018-05-29T23:01:02.535Z,14.80
2018-05-29T23:03:30.031Z,14.80
2018-05-29T23:05:57.497Z,14.80
2018-05-29T23:08:25.035Z,14.70
2018-05-29T23:10:52.496Z,14.70
2018-05-29T23:13:20.027Z,14.60
2018-05-29T23:15:47.509Z,14.60
2018-05-29T23:18:15.025Z,14.50
2018-05-29T23:20:43.278Z,14.40
2018-05-29T23:23:10.770Z,14.40
2018-05-29T23:25:38.233Z,14.50
2018-05-29T23:28:05.728Z,14.30
2018-05-29T23:30:33.201Z,14.30
2018-05-29T23:33:00.679Z,14.30
2018-05-29T23:35:28.937Z,14.20
2018-05-29T23:37:56.401Z,14.10
2018-05-29T23:40:23.902Z,14.20
2018-05-29T23:42:51.378Z,14.20
2018-05-29T23:45:18.861Z,14.10
2018-05-29T23:47:46.329Z,14.10
2018-05-29T23:50:13.833Z,14.00
2018-05-29T23:52:41.301Z,13.90
2018-05-29T23:55:08.797Z,13.90
2018-05-29T23:57:36.273Z,13.80
